sensor_id;sensor_type;location;lat;lon;timestamp;pressure;altitude;pressure_sealevel;temperature;humidity
16821;BME280;8527;49.740;6.604;2023-02-18T00:04:43;100689.59;;;10.86;100.00
16821;BME280;8527;49.740;6.604;2023-02-18T00:09:42;100687.06;;;10.84;100.00
16821;BME280;8527;49.740;6.604;2023-02-18T00:14:40;100687.38;;;10.81;100.00
16821;BME280;8527;49.740;6.604;2023-02-18T00:19:42;100689.47;;;10.78;100.00
16821;BME280;8527;49.740;6.604;2023-02-18T00:24:41;100681.25;;;10.81;100.00
16821;BME280;8527;49.740;6.604;2023-02-18T00:29:39;100683.06;;;10.80;100.00
16821;BME280;8527;49.740;6.604;2023-02-18T00:34:37;100689.66;;;10.76;100.00
16821;BME280;8527;49.740;6.604;2023-02-18T00:39:39;100697.31;;;10.79;100.00
16821;BME280;8527;49.740;6.604;2023-02-18T00:44:40;100691.31;;;10.77;100.00
16821;BME280;8527;49.740;6.604;2023-02-18T00:49:38;100689.78;;;10.75;100.00
16821;BME280;8527;49.740;6.604;2023-02-18T00:54:39;100690.63;;;10.75;100.00
16821;BME280;8527;49.740;6.604;2023-02-18T00:59:37;100696.22;;;10.72;100.00
16821;BME280;8527;49.740;6.604;2023-02-18T01:04:41;100690.38;;;10.68;100.00
16821;BME280;8527;49.740;6.604;2023-02-18T01:09:42;100694.25;;;10.74;100.00
16821;BME280;8527;49.740;6.604;2023-02-18T01:14:41;100693.19;;;10.67;100.00
16821;BME280;8527;49.740;6.604;2023-02-18T01:19:42;100698.19;;;10.70;100.00
16821;BME280;8527;49.740;6.604;2023-02-18T01:24:43;100690.38;;;10.68;100.00
16821;BME280;8527;49.740;6.604;2023-02-18T01:29:42;100680.34;;;10.62;100.00
16821;BME280;8527;49.740;6.604;2023-02-18T01:34:40;100670.56;;;10.63;100.00
16821;BME280;8527;49.740;6.604;2023-02-18T01:39:39;100661.06;;;10.60;100.00
16821;BME280;8527;49.740;6.604;2023-02-18T01:44:40;100656.88;;;10.58;100.00
16821;BME280;8527;49.740;6.604;2023-02-18T01:49:42;100646.28;;;10.58;100.00
16821;BME280;8527;49.740;6.604;2023-02-18T01:54:52;100657.44;;;10.61;100.00
16821;BME280;8527;49.740;6.604;2023-02-18T01:59:59;100645.47;;;10.57;100.00
16821;BME280;8527;49.740;6.604;2023-02-18T02:05:04;100631.47;;;10.55;100.00
16821;BME280;8527;49.740;6.604;2023-02-18T02:10:03;100623.97;;;10.50;100.00
16821;BME280;8527;49.740;6.604;2023-02-18T02:15:33;100625.78;;;10.50;100.00
16821;BME280;8527;49.740;6.604;2023-02-18T02:32:17;100597.44;;;10.50;100.00
16821;BME280;8527;49.740;6.604;2023-02-18T02:37:27;100592.56;;;10.46;100.00
16821;BME280;8527;49.740;6.604;2023-02-18T02:42:41;100603.19;;;10.46;100.00
16821;BME280;8527;49.740;6.604;2023-02-18T02:47:48;100598.88;;;10.45;100.00
16821;BME280;8527;49.740;6.604;2023-02-18T02:52:53;100601.53;;;10.45;100.00
16821;BME280;8527;49.740;6.604;2023-02-18T02:57:55;100599.13;;;10.41;100.00
16821;BME280;8527;49.740;6.604;2023-02-18T03:03:19;100610.31;;;10.45;100.00
16821;BME280;8527;49.740;6.604;2023-02-18T03:08:38;100601.66;;;10.43;100.00
16821;BME280;8527;49.740;6.604;2023-02-18T03:13:56;100608.75;;;10.43;100.00
16821;BME280;8527;49.740;6.604;2023-02-18T03:19:05;100600.69;;;10.44;100.00
16821;BME280;8527;49.740;6.604;2023-02-18T03:24:12;100587.41;;;10.44;100.00
16821;BME280;8527;49.740;6.604;2023-02-18T03:29:13;100584.06;;;10.42;100.00
16821;BME280;8527;49.740;6.604;2023-02-18T03:34:22;100583.22;;;10.41;100.00
16821;BME280;8527;49.740;6.604;2023-02-18T03:39:30;100579.31;;;10.36;100.00
16821;BME280;8527;49.740;6.604;2023-02-18T03:44:30;100574.84;;;10.36;100.00
16821;BME280;8527;49.740;6.604;2023-02-18T03:49:28;100553.09;;;10.33;100.00
16821;BME280;8527;49.740;6.604;2023-02-18T03:54:30;100568.44;;;10.29;100.00
16821;BME280;8527;49.740;6.604;2023-02-18T03:59:29;100567.09;;;10.25;100.00
16821;BME280;8527;49.740;6.604;2023-02-18T04:04:36;100553.28;;;10.21;100.00
16821;BME280;8527;49.740;6.604;2023-02-18T04:09:37;100565.16;;;10.17;98.85
16821;BME280;8527;49.740;6.604;2023-02-18T04:14:40;100565.16;;;10.17;97.91
16821;BME280;8527;49.740;6.604;2023-02-18T04:19:38;100554.56;;;10.17;97.33
16821;BME280;8527;49.740;6.604;2023-02-18T04:24:41;100565.16;;;10.17;96.12
16821;BME280;8527;49.740;6.604;2023-02-18T04:34:44;100556.66;;;10.13;95.10
16821;BME280;8527;49.740;6.604;2023-02-18T04:39:47;100554.16;;;10.12;94.25
16821;BME280;8527;49.740;6.604;2023-02-18T04:44:52;100549.69;;;10.12;92.91
16821;BME280;8527;49.740;6.604;2023-02-18T04:49:50;100561.97;;;10.13;91.93
16821;BME280;8527;49.740;6.604;2023-02-18T04:54:59;100551.34;;;10.13;91.68
16821;BME280;8527;49.740;6.604;2023-02-18T05:00:00;100558.63;;;10.11;90.37
16821;BME280;8527;49.740;6.604;2023-02-18T05:05:01;100558.63;;;10.11;90.25
16821;BME280;8527;49.740;6.604;2023-02-18T05:10:03;100555.13;;;10.11;89.43
16821;BME280;8527;49.740;6.604;2023-02-18T05:15:06;100553.44;;;10.10;88.32
16821;BME280;8527;49.740;6.604;2023-02-18T05:20:07;100556.09;;;10.10;87.48
16821;BME280;8527;49.740;6.604;2023-02-18T05:25:08;100564.06;;;10.10;87.06
16821;BME280;8527;49.740;6.604;2023-02-18T05:30:07;100562.25;;;10.10;86.90
16821;BME280;8527;49.740;6.604;2023-02-18T05:35:07;100566.72;;;10.10;86.15
16821;BME280;8527;49.740;6.604;2023-02-18T05:40:10;100551.09;;;10.07;86.66
16821;BME280;8527;49.740;6.604;2023-02-18T05:45:10;100545.13;;;10.05;86.43
16821;BME280;8527;49.740;6.604;2023-02-18T05:50:09;100529.22;;;10.05;85.13
16821;BME280;8527;49.740;6.604;2023-02-18T05:55:10;100527.41;;;10.05;84.78
16821;BME280;8527;49.740;6.604;2023-02-18T06:00:23;100523.91;;;10.05;84.84
16821;BME280;8527;49.740;6.604;2023-02-18T06:05:24;100509.81;;;10.04;84.87
16821;BME280;8527;49.740;6.604;2023-02-18T06:10:25;100511.78;;;10.02;85.60
16821;BME280;8527;49.740;6.604;2023-02-18T06:15:26;100499.66;;;9.99;85.21
16821;BME280;8527;49.740;6.604;2023-02-18T06:20:31;100497.16;;;9.98;85.28
16821;BME280;8527;49.740;6.604;2023-02-18T06:25:32;100500.63;;;9.98;85.29
16821;BME280;8527;49.740;6.604;2023-02-18T06:30:34;100503.13;;;10.00;85.24
16821;BME280;8527;49.740;6.604;2023-02-18T06:35:35;100493.50;;;9.99;84.67
16821;BME280;8527;49.740;6.604;2023-02-18T06:40:36;100500.91;;;9.95;85.15
16821;BME280;8527;49.740;6.604;2023-02-18T06:45:40;100504.13;;;9.99;85.01
16821;BME280;8527;49.740;6.604;2023-02-18T06:50:41;100513.59;;;10.02;85.15
16821;BME280;8527;49.740;6.604;2023-02-18T06:55:45;100516.25;;;10.02;85.41
16821;BME280;8527;49.740;6.604;2023-02-18T07:00:46;100511.94;;;10.01;85.08
16821;BME280;8527;49.740;6.604;2023-02-18T07:05:45;100509.28;;;10.01;85.28
16821;BME280;8527;49.740;6.604;2023-02-18T07:10:46;100520.56;;;10.03;84.77
16821;BME280;8527;49.740;6.604;2023-02-18T07:15:44;100529.22;;;10.05;85.28
16821;BME280;8527;49.740;6.604;2023-02-18T07:20:45;100523.06;;;10.04;84.48
16821;BME280;8527;49.740;6.604;2023-02-18T07:25:46;100522.09;;;10.05;85.03
16821;BME280;8527;49.740;6.604;2023-02-18T07:30:45;100517.47;;;10.07;84.53
16821;BME280;8527;49.740;6.604;2023-02-18T07:35:45;100514.41;;;10.12;85.38
16821;BME280;8527;49.740;6.604;2023-02-18T07:40:47;100503.31;;;10.17;85.26
16821;BME280;8527;49.740;6.604;2023-02-18T07:45:45;100509.47;;;10.17;84.31
16821;BME280;8527;49.740;6.604;2023-02-18T07:50:45;100501.22;;;10.20;84.00
16821;BME280;8527;49.740;6.604;2023-02-18T07:55:43;100507.50;;;10.19;83.93
16821;BME280;8527;49.740;6.604;2023-02-18T08:00:51;100492.44;;;10.20;83.10
16821;BME280;8527;49.740;6.604;2023-02-18T08:05:50;100473.72;;;10.21;82.66
16821;BME280;8527;49.740;6.604;2023-02-18T08:10:50;100493.13;;;10.22;82.20
16821;BME280;8527;49.740;6.604;2023-02-18T08:15:54;100491.72;;;10.27;82.47
16821;BME280;8527;49.740;6.604;2023-02-18T08:20:55;100494.34;;;10.27;81.33
16821;BME280;8527;49.740;6.604;2023-02-18T08:25:55;100515.13;;;10.32;82.03
16821;BME280;8527;49.740;6.604;2023-02-18T08:30:56;100533.53;;;10.34;81.47
16821;BME280;8527;49.740;6.604;2023-02-18T08:35:55;100533.69;;;10.32;81.15
16821;BME280;8527;49.740;6.604;2023-02-18T08:41:01;100539.69;;;10.34;81.88
16821;BME280;8527;49.740;6.604;2023-02-18T08:46:02;100533.69;;;10.32;82.19
16821;BME280;8527;49.740;6.604;2023-02-18T08:51:10;100547.47;;;10.36;81.57
16821;BME280;8527;49.740;6.604;2023-02-18T08:56:09;100550.00;;;10.37;81.61
16821;BME280;8527;49.740;6.604;2023-02-18T09:01:11;100549.00;;;10.38;81.82
16821;BME280;8527;49.740;6.604;2023-02-18T09:06:10;100554.47;;;10.37;82.20
16821;BME280;8527;49.740;6.604;2023-02-18T09:11:09;100557.94;;;10.37;81.44
16821;BME280;8527;49.740;6.604;2023-02-18T09:16:12;100563.22;;;10.47;81.59
16821;BME280;8527;49.740;6.604;2023-02-18T09:21:13;100552.25;;;10.42;80.89
16821;BME280;8527;49.740;6.604;2023-02-18T09:26:16;100564.38;;;10.45;81.25
16821;BME280;8527;49.740;6.604;2023-02-18T09:31:20;100555.69;;;10.52;81.31
16821;BME280;8527;49.740;6.604;2023-02-18T09:36:19;100554.09;;;10.60;81.64
16821;BME280;8527;49.740;6.604;2023-02-18T09:41:28;100561.84;;;10.71;81.45
16821;BME280;8527;49.740;6.604;2023-02-18T09:46:36;100563.00;;;10.68;80.60
16821;BME280;8527;49.740;6.604;2023-02-18T09:51:36;100576.09;;;10.70;79.45
16821;BME280;8527;49.740;6.604;2023-02-18T09:56:36;100573.53;;;10.78;78.69
16821;BME280;8527;49.740;6.604;2023-02-18T10:01:41;100580.28;;;10.73;78.07
16821;BME280;8527;49.740;6.604;2023-02-18T10:06:45;100575.34;;;10.78;78.24
16821;BME280;8527;49.740;6.604;2023-02-18T10:11:47;100570.22;;;10.76;78.32
16821;BME280;8527;49.740;6.604;2023-02-18T10:16:50;100569.06;;;10.79;78.72
16821;BME280;8527;49.740;6.604;2023-02-18T10:21:55;100580.22;;;10.82;78.44
16821;BME280;8527;49.740;6.604;2023-02-18T10:26:54;100578.69;;;10.80;77.86
16821;BME280;8527;49.740;6.604;2023-02-18T10:32:01;100579.22;;;10.83;78.22
16821;BME280;8527;49.740;6.604;2023-02-18T10:37:06;100576.28;;;10.87;78.18
16821;BME280;8527;49.740;6.604;2023-02-18T10:42:19;100569.28;;;10.86;78.40
16821;BME280;8527;49.740;6.604;2023-02-18T10:47:33;100580.09;;;10.84;78.56
16821;BME280;8527;49.740;6.604;2023-02-18T10:53:00;100572.41;;;10.99;79.10
16821;BME280;8527;49.740;6.604;2023-02-18T10:57:59;100569.69;;;10.91;78.69
16821;BME280;8527;49.740;6.604;2023-02-18T11:03:14;100574.03;;;10.92;79.02
16821;BME280;8527;49.740;6.604;2023-02-18T11:08:17;100567.84;;;10.91;78.72
16821;BME280;8527;49.740;6.604;2023-02-18T11:13:24;100556.25;;;10.92;79.08
16821;BME280;8527;49.740;6.604;2023-02-18T11:18:34;100555.97;;;10.95;79.17
16821;BME280;8527;49.740;6.604;2023-02-18T11:23:45;100546.09;;;11.06;79.34
16821;BME280;8527;49.740;6.604;2023-02-18T11:28:46;100544.41;;;11.05;78.43
16821;BME280;8527;49.740;6.604;2023-02-18T11:33:53;100537.63;;;11.20;79.24
16821;BME280;8527;49.740;6.604;2023-02-18T11:38:54;100543.38;;;11.16;79.49
16821;BME280;8527;49.740;6.604;2023-02-18T11:43:53;100544.50;;;11.13;79.66
16821;BME280;8527;49.740;6.604;2023-02-18T11:48:55;100539.72;;;10.98;79.90
16821;BME280;8527;49.740;6.604;2023-02-18T11:54:01;100525.84;;;11.05;79.67
16821;BME280;8527;49.740;6.604;2023-02-18T11:59:01;100512.19;;;11.00;80.06
16821;BME280;8527;49.740;6.604;2023-02-18T12:04:09;100514.72;;;11.01;79.86
16821;BME280;8527;49.740;6.604;2023-02-18T12:09:13;100510.06;;;11.03;80.04
16821;BME280;8527;49.740;6.604;2023-02-18T12:14:20;100515.16;;;10.96;80.04
16821;BME280;8527;49.740;6.604;2023-02-18T12:19:36;100506.88;;;11.00;80.13
16821;BME280;8527;49.740;6.604;2023-02-18T12:24:47;100499.91;;;10.98;80.50
16821;BME280;8527;49.740;6.604;2023-02-18T12:30:02;100497.94;;;11.01;80.22
16821;BME280;8527;49.740;6.604;2023-02-18T12:35:21;100496.34;;;10.90;80.18
16821;BME280;8527;49.740;6.604;2023-02-18T12:40:48;100489.28;;;10.98;80.42
16821;BME280;8527;49.740;6.604;2023-02-18T12:46:13;100487.44;;;10.99;80.76
16821;BME280;8527;49.740;6.604;2023-02-18T12:51:26;100484.97;;;10.97;80.79
16821;BME280;8527;49.740;6.604;2023-02-18T12:56:46;100489.88;;;10.92;80.37
16821;BME280;8527;49.740;6.604;2023-02-18T13:01:57;100478.75;;;10.89;80.82
16821;BME280;8527;49.740;6.604;2023-02-18T13:07:18;100477.00;;;10.97;80.99
16821;BME280;8527;49.740;6.604;2023-02-18T13:12:23;100477.53;;;11.01;80.69
16821;BME280;8527;49.740;6.604;2023-02-18T13:17:30;100477.47;;;10.93;81.93
16821;BME280;8527;49.740;6.604;2023-02-18T13:22:34;100464.72;;;10.96;82.42
16821;BME280;8527;49.740;6.604;2023-02-18T13:27:42;100466.00;;;10.92;81.96
16821;BME280;8527;49.740;6.604;2023-02-18T13:32:52;100464.31;;;10.91;81.41
16821;BME280;8527;49.740;6.604;2023-02-18T13:38:11;100457.22;;;10.92;81.38
16821;BME280;8527;49.740;6.604;2023-02-18T13:43:28;100446.06;;;10.88;83.47
16821;BME280;8527;49.740;6.604;2023-02-18T13:48:37;100452.13;;;10.80;83.56
16821;BME280;8527;49.740;6.604;2023-02-18T13:53:41;100459.41;;;10.78;83.56
16821;BME280;8527;49.740;6.604;2023-02-18T13:58:49;100436.13;;;10.72;83.33
16821;BME280;8527;49.740;6.604;2023-02-18T14:03:57;100434.16;;;10.74;83.32
16821;BME280;8527;49.740;6.604;2023-02-18T14:14:39;100436.81;;;10.74;83.42
16821;BME280;8527;49.740;6.604;2023-02-18T14:19:40;100437.34;;;10.78;82.96
16821;BME280;8527;49.740;6.604;2023-02-18T14:24:52;100425.72;;;10.79;83.29
16821;BME280;8527;49.740;6.604;2023-02-18T14:30:02;100427.25;;;10.81;83.14
16821;BME280;8527;49.740;6.604;2023-02-18T14:35:25;100437.41;;;10.86;83.13
16821;BME280;8527;49.740;6.604;2023-02-18T14:40:42;100440.84;;;10.78;82.90
16821;BME280;8527;49.740;6.604;2023-02-18T14:46:02;100452.00;;;10.82;83.27
16821;BME280;8527;49.740;6.604;2023-02-18T14:51:05;100447.13;;;10.77;83.01
16821;BME280;8527;49.740;6.604;2023-02-18T14:56:08;100450.56;;;10.69;83.02
16821;BME280;8527;49.740;6.604;2023-02-18T15:01:22;100450.84;;;10.66;83.08
16821;BME280;8527;49.740;6.604;2023-02-18T15:06:28;100454.34;;;10.67;83.31
16821;BME280;8527;49.740;6.604;2023-02-18T15:11:36;100453.34;;;10.68;83.73
16821;BME280;8527;49.740;6.604;2023-02-18T15:16:42;100443.41;;;10.70;83.96
16821;BME280;8527;49.740;6.604;2023-02-18T15:21:42;100450.69;;;10.68;83.67
16821;BME280;8527;49.740;6.604;2023-02-18T15:26:42;100446.97;;;10.61;84.24
16821;BME280;8527;49.740;6.604;2023-02-18T15:31:47;100444.31;;;10.61;84.63
16821;BME280;8527;49.740;6.604;2023-02-18T15:36:54;100440.97;;;10.59;86.17
16821;BME280;8527;49.740;6.604;2023-02-18T15:41:56;100449.88;;;10.49;87.10
16821;BME280;8527;49.740;6.604;2023-02-18T15:47:07;100438.72;;;10.46;88.60
16821;BME280;8527;49.740;6.604;2023-02-18T15:52:06;100444.03;;;10.36;90.31
16821;BME280;8527;49.740;6.604;2023-02-18T15:57:09;100443.19;;;10.17;92.45
16821;BME280;8527;49.740;6.604;2023-02-18T16:02:16;100441.47;;;9.98;93.96
16821;BME280;8527;49.740;6.604;2023-02-18T16:07:24;100442.59;;;9.95;94.79
16821;BME280;8527;49.740;6.604;2023-02-18T16:12:29;100453.19;;;9.95;95.92
16821;BME280;8527;49.740;6.604;2023-02-18T16:17:31;100455.78;;;9.77;98.35
16821;BME280;8527;49.740;6.604;2023-02-18T16:22:35;100451.22;;;9.69;98.45
16821;BME280;8527;49.740;6.604;2023-02-18T16:27:37;100455.78;;;9.77;97.38
16821;BME280;8527;49.740;6.604;2023-02-18T16:32:51;100446.34;;;9.75;98.97
16821;BME280;8527;49.740;6.604;2023-02-18T16:37:56;100454.16;;;9.66;100.00
16821;BME280;8527;49.740;6.604;2023-02-18T16:42:56;100451.00;;;9.53;100.00
16821;BME280;8527;49.740;6.604;2023-02-18T16:47:57;100449.47;;;9.50;100.00
16821;BME280;8527;49.740;6.604;2023-02-18T16:52:56;100447.81;;;9.49;100.00
16821;BME280;8527;49.740;6.604;2023-02-18T16:57:55;100450.47;;;9.49;100.00
16821;BME280;8527;49.740;6.604;2023-02-18T17:02:59;100444.34;;;9.39;100.00
16821;BME280;8527;49.740;6.604;2023-02-18T17:08:10;100450.31;;;9.41;100.00
16821;BME280;8527;49.740;6.604;2023-02-18T17:13:13;100444.34;;;9.39;100.00
16821;BME280;8527;49.740;6.604;2023-02-18T17:18:14;100446.03;;;9.30;100.00
16821;BME280;8527;49.740;6.604;2023-02-18T17:23:13;100452.19;;;9.31;100.00
16821;BME280;8527;49.740;6.604;2023-02-18T17:28:22;100456.63;;;9.30;100.00
16821;BME280;8527;49.740;6.604;2023-02-18T17:33:26;100456.94;;;9.27;100.00
16821;BME280;8527;49.740;6.604;2023-02-18T17:38:25;100463.19;;;9.36;100.00
16821;BME280;8527;49.740;6.604;2023-02-18T17:43:23;100465.28;;;9.32;100.00
16821;BME280;8527;49.740;6.604;2023-02-18T17:48:29;100456.94;;;9.27;100.00
16821;BME280;8527;49.740;6.604;2023-02-18T17:53:27;100452.75;;;9.24;100.00
16821;BME280;8527;49.740;6.604;2023-02-18T17:58:29;100453.59;;;9.25;100.00
16821;BME280;8527;49.740;6.604;2023-02-18T18:03:30;100457.19;;;9.34;100.00
16821;BME280;8527;49.740;6.604;2023-02-18T18:08:28;100464.88;;;9.27;100.00
16821;BME280;8527;49.740;6.604;2023-02-18T18:13:29;100465.56;;;9.29;100.00
16821;BME280;8527;49.740;6.604;2023-02-18T18:18:32;100462.50;;;9.34;100.00
16821;BME280;8527;49.740;6.604;2023-02-18T18:23:36;100462.34;;;9.25;100.00
16821;BME280;8527;49.740;6.604;2023-02-18T18:28:34;100466.16;;;9.23;100.00
16821;BME280;8527;49.740;6.604;2023-02-18T18:33:36;100458.59;;;9.28;100.00
16821;BME280;8527;49.740;6.604;2023-02-18T18:38:34;100461.94;;;9.30;100.00
16821;BME280;8527;49.740;6.604;2023-02-18T18:43:33;100458.63;;;9.18;100.00
16821;BME280;8527;49.740;6.604;2023-02-18T18:48:36;100452.59;;;9.16;100.00
16821;BME280;8527;49.740;6.604;2023-02-18T18:53:35;100452.19;;;9.21;100.00
16821;BME280;8527;49.740;6.604;2023-02-18T18:58:33;100446.63;;;9.24;100.00
16821;BME280;8527;49.740;6.604;2023-02-18T19:03:37;100453.47;;;9.17;100.00
16821;BME280;8527;49.740;6.604;2023-02-18T19:08:36;100452.47;;;9.18;100.00
16821;BME280;8527;49.740;6.604;2023-02-18T19:13:38;100451.66;;;9.17;100.00
16821;BME280;8527;49.740;6.604;2023-02-18T19:18:42;100452.06;;;9.22;100.00
16821;BME280;8527;49.740;6.604;2023-02-18T19:23:41;100444.66;;;9.16;100.00
16821;BME280;8527;49.740;6.604;2023-02-18T19:28:46;100441.63;;;9.11;100.00
16821;BME280;8527;49.740;6.604;2023-02-18T19:33:47;100441.50;;;9.12;100.00
16821;BME280;8527;49.740;6.604;2023-02-18T19:38:50;100436.72;;;9.16;100.00
16821;BME280;8527;49.740;6.604;2023-02-18T19:43:48;100444.66;;;9.16;100.00
16821;BME280;8527;49.740;6.604;2023-02-18T19:48:50;100433.38;;;9.14;100.00
16821;BME280;8527;49.740;6.604;2023-02-18T19:53:48;100434.06;;;9.16;100.00
16821;BME280;8527;49.740;6.604;2023-02-18T19:58:47;100433.13;;;9.17;100.00
16821;BME280;8527;49.740;6.604;2023-02-18T20:03:45;100436.47;;;9.19;100.00
16821;BME280;8527;49.740;6.604;2023-02-18T20:08:47;100433.69;;;9.11;100.00
16821;BME280;8527;49.740;6.604;2023-02-18T20:13:46;100428.50;;;9.09;100.00
16821;BME280;8527;49.740;6.604;2023-02-18T20:18:44;100427.56;;;9.10;100.00
16821;BME280;8527;49.740;6.604;2023-02-18T20:23:45;100425.06;;;9.09;100.00
16821;BME280;8527;49.740;6.604;2023-02-18T20:28:47;100424.94;;;9.10;100.00
16821;BME280;8527;49.740;6.604;2023-02-18T20:33:48;100421.97;;;9.13;100.00
16821;BME280;8527;49.740;6.604;2023-02-18T20:38:48;100414.72;;;9.15;100.00
16821;BME280;8527;49.740;6.604;2023-02-18T20:43:50;100412.63;;;9.09;100.00
16821;BME280;8527;49.740;6.604;2023-02-18T20:48:52;100414.59;;;9.07;100.00
16821;BME280;8527;49.740;6.604;2023-02-18T20:53:53;100406.41;;;9.10;100.00
16821;BME280;8527;49.740;6.604;2023-02-18T20:58:58;100398.72;;;9.07;100.00
16821;BME280;8527;49.740;6.604;2023-02-18T21:03:57;100392.31;;;9.10;100.00
16821;BME280;8527;49.740;6.604;2023-02-18T21:08:57;100395.25;;;9.07;100.00
16821;BME280;8527;49.740;6.604;2023-02-18T21:13:58;100401.34;;;9.07;100.00
16821;BME280;8527;49.740;6.604;2023-02-18T21:19:05;100394.97;;;9.10;100.00
16821;BME280;8527;49.740;6.604;2023-02-18T21:24:04;100390.78;;;9.07;100.00
16821;BME280;8527;49.740;6.604;2023-02-18T21:29:08;100387.44;;;9.05;100.00
16821;BME280;8527;49.740;6.604;2023-02-18T21:34:10;100383.13;;;9.04;100.00
16821;BME280;8527;49.740;6.604;2023-02-18T21:39:10;100382.16;;;9.05;100.00
16821;BME280;8527;49.740;6.604;2023-02-18T21:44:11;100380.47;;;9.04;100.00
16821;BME280;8527;49.740;6.604;2023-02-18T21:49:12;100370.56;;;9.06;100.00
16821;BME280;8527;49.740;6.604;2023-02-18T21:54:11;100364.31;;;9.07;100.00
16821;BME280;8527;49.740;6.604;2023-02-18T21:59:12;100367.94;;;9.06;100.00
16821;BME280;8527;49.740;6.604;2023-02-18T22:04:10;100365.44;;;9.05;100.00
16821;BME280;8527;49.740;6.604;2023-02-18T22:09:09;100370.44;;;9.08;100.00
16821;BME280;8527;49.740;6.604;2023-02-18T22:14:09;100358.31;;;9.05;100.00
16821;BME280;8527;49.740;6.604;2023-02-18T22:19:14;100371.13;;;9.10;100.00
16821;BME280;8527;49.740;6.604;2023-02-18T22:24:16;100369.47;;;9.09;100.00
16821;BME280;8527;49.740;6.604;2023-02-18T22:29:28;100364.16;;;9.09;100.00
16821;BME280;8527;49.740;6.604;2023-02-18T22:34:29;100359.00;;;9.07;100.00
16821;BME280;8527;49.740;6.604;2023-02-18T22:39:33;100356.09;;;9.10;100.00
16821;BME280;8527;49.740;6.604;2023-02-18T22:44:32;100346.19;;;9.12;99.82
16821;BME280;8527;49.740;6.604;2023-02-18T22:49:36;100325.84;;;9.13;100.00
16821;BME280;8527;49.740;6.604;2023-02-18T22:54:35;100334.47;;;9.15;99.59
16821;BME280;8527;49.740;6.604;2023-02-18T22:59:36;100341.44;;;9.16;99.96
16821;BME280;8527;49.740;6.604;2023-02-18T23:04:41;100339.63;;;9.17;99.49
16821;BME280;8527;49.740;6.604;2023-02-18T23:09:41;100340.75;;;9.14;99.57
16821;BME280;8527;49.740;6.604;2023-02-18T23:14:42;100329.88;;;9.17;99.75
16821;BME280;8527;49.740;6.604;2023-02-18T23:19:45;100324.72;;;9.15;99.54
16821;BME280;8527;49.740;6.604;2023-02-18T23:24:44;100318.44;;;9.17;99.53
16821;BME280;8527;49.740;6.604;2023-02-18T23:29:44;100314.97;;;9.16;99.76
16821;BME280;8527;49.740;6.604;2023-02-18T23:34:45;100316.19;;;9.22;99.68
16821;BME280;8527;49.740;6.604;2023-02-18T23:39:43;100311.34;;;9.17;99.80
16821;BME280;8527;49.740;6.604;2023-02-18T23:44:47;100305.09;;;9.18;99.86
16821;BME280;8527;49.740;6.604;2023-02-18T23:49:51;100317.47;;;9.18;99.88
16821;BME280;8527;49.740;6.604;2023-02-18T23:54:58;100312.72;;;9.21;99.84
16821;BME280;8527;49.740;6.604;2023-02-18T23:59:56;100324.00;;;9.23;99.71
